TimeEST,TemperatureF,Dew PointF,Humidity,Sea Level PressureIn,VisibilityMPH,Wind Direction,Wind SpeedMPH,Gust SpeedMPH,PrecipitationIn,Events,Conditions,WindDirDegrees,DateUTC
12:15 AM,41.0,30.2,65,29.92,10.0,West,5.8,-,N/A,,Overcast,280,2013-03-02 05:15:00
12:35 AM,39.2,30.2,70,29.91,10.0,West,5.8,-,N/A,,Overcast,260,2013-03-02 05:35:00
12:55 AM,39.2,30.2,70,29.91,10.0,West,5.8,-,N/A,,Overcast,270,2013-03-02 05:55:00
1:15 AM,39.2,30.2,70,29.91,10.0,West,8.1,-,N/A,,Overcast,260,2013-03-02 06:15:00
1:35 AM,39.2,30.2,70,29.92,10.0,West,3.5,-,N/A,,Overcast,270,2013-03-02 06:35:00
1:55 AM,37.4,30.2,75,29.91,10.0,West,6.9,-,N/A,,Overcast,260,2013-03-02 06:55:00
2:15 AM,37.4,30.2,75,29.91,10.0,West,8.1,-,N/A,,Overcast,260,2013-03-02 07:15:00
2:35 AM,37.4,32.0,81,29.91,10.0,WSW,6.9,-,N/A,,Overcast,250,2013-03-02 07:35:00
2:55 AM,37.4,32.0,81,29.90,10.0,West,6.9,-,N/A,,Overcast,260,2013-03-02 07:55:00
3:15 AM,37.4,32.0,81,29.89,10.0,West,6.9,-,N/A,,Overcast,270,2013-03-02 08:15:00
3:35 AM,37.4,32.0,81,29.88,10.0,West,9.2,-,N/A,,Scattered Clouds,270,2013-03-02 08:35:00
3:55 AM,35.6,30.2,81,29.88,10.0,West,6.9,-,N/A,,Clear,270,2013-03-02 08:55:00
4:15 AM,35.6,30.2,81,29.88,10.0,West,5.8,-,N/A,,Clear,270,2013-03-02 09:15:00
4:55 AM,35.6,32.0,87,29.88,10.0,West,4.6,-,N/A,,Scattered Clouds,270,2013-03-02 09:55:00
5:15 AM,35.6,32.0,87,29.88,10.0,West,5.8,-,N/A,,Mostly Cloudy,260,2013-03-02 10:15:00
5:35 AM,35.6,32.0,87,29.88,10.0,West,5.8,-,N/A,,Overcast,260,2013-03-02 10:35:00
5:55 AM,35.6,32.0,87,29.88,10.0,West,8.1,-,N/A,,Overcast,270,2013-03-02 10:55:00
6:15 AM,35.6,32.0,87,29.88,10.0,West,3.5,-,N/A,,Overcast,270,2013-03-02 11:15:00
6:55 AM,35.6,32.0,87,29.89,10.0,West,5.8,-,N/A,,Overcast,270,2013-03-02 11:55:00
7:35 AM,35.6,32.0,87,29.89,10.0,WNW,5.8,-,N/A,,Overcast,290,2013-03-02 12:35:00
7:55 AM,35.6,32.0,87,29.90,10.0,West,8.1,-,N/A,,Overcast,270,2013-03-02 12:55:00
8:15 AM,35.6,32.0,87,29.90,10.0,West,5.8,-,N/A,,Overcast,280,2013-03-02 13:15:00
8:55 AM,37.4,32.0,81,29.91,10.0,West,8.1,-,N/A,,Overcast,270,2013-03-02 13:55:00
9:15 AM,37.4,32.0,81,29.91,10.0,WNW,9.2,16.1,N/A,,Overcast,290,2013-03-02 14:15:00
9:35 AM,39.2,32.0,75,29.91,10.0,West,8.1,-,N/A,,Overcast,280,2013-03-02 14:35:00
9:55 AM,41.0,32.0,70,29.91,10.0,WNW,6.9,-,N/A,,Overcast,290,2013-03-02 14:55:00
10:15 AM,41.0,32.0,70,29.91,10.0,WNW,11.5,-,N/A,,Overcast,290,2013-03-02 15:15:00
10:35 AM,41.0,32.0,70,29.91,10.0,West,9.2,-,N/A,,Overcast,280,2013-03-02 15:35:00
10:55 AM,41.0,32.0,70,29.91,10.0,West,6.9,-,N/A,,Overcast,260,2013-03-02 15:55:00
11:15 AM,42.8,30.2,61,29.91,10.0,West,8.1,-,N/A,,Overcast,280,2013-03-02 16:15:00
11:35 AM,42.8,30.2,61,29.91,10.0,WSW,5.8,-,N/A,,Overcast,250,2013-03-02 16:35:00
11:55 AM,42.8,30.2,61,29.91,10.0,West,6.9,-,N/A,,Overcast,260,2013-03-02 16:55:00
12:15 PM,42.8,30.2,61,29.90,10.0,West,8.1,-,N/A,,Overcast,260,2013-03-02 17:15:00
12:35 PM,42.8,30.2,61,29.90,10.0,WSW,6.9,-,N/A,,Overcast,250,2013-03-02 17:35:00
12:55 PM,42.8,30.2,61,29.90,10.0,West,8.1,-,N/A,,Overcast,280,2013-03-02 17:55:00
1:15 PM,44.6,30.2,57,29.89,10.0,West,6.9,-,N/A,,Overcast,270,2013-03-02 18:15:00
1:35 PM,44.6,30.2,57,29.87,10.0,West,9.2,17.3,N/A,,Overcast,270,2013-03-02 18:35:00
1:55 PM,44.6,30.2,57,29.87,10.0,WSW,9.2,16.1,N/A,,Overcast,240,2013-03-02 18:55:00
2:15 PM,42.8,28.4,57,29.87,10.0,West,5.8,-,N/A,,Overcast,280,2013-03-02 19:15:00
2:35 PM,42.8,30.2,61,29.87,10.0,West,5.8,-,N/A,,Overcast,260,2013-03-02 19:35:00
2:55 PM,44.6,28.4,53,29.87,10.0,West,4.6,-,N/A,,Overcast,260,2013-03-02 19:55:00
3:15 PM,44.6,28.4,53,29.87,10.0,West,9.2,20.7,N/A,,Overcast,260,2013-03-02 20:15:00
3:35 PM,44.6,26.6,49,29.87,10.0,WSW,6.9,19.6,N/A,,Overcast,250,2013-03-02 20:35:00
3:55 PM,46.4,26.6,46,29.87,10.0,West,9.2,19.6,N/A,,Overcast,280,2013-03-02 20:55:00
4:15 PM,44.6,26.6,49,29.88,10.0,West,15.0,23.0,N/A,,Mostly Cloudy,270,2013-03-02 21:15:00
4:35 PM,42.8,26.6,53,29.89,10.0,West,15.0,19.6,N/A,,Mostly Cloudy,280,2013-03-02 21:35:00
4:55 PM,41.0,24.8,53,29.90,10.0,West,10.4,21.9,N/A,,Scattered Clouds,260,2013-03-02 21:55:00
5:15 PM,41.0,24.8,53,29.90,10.0,West,9.2,-,N/A,,Scattered Clouds,280,2013-03-02 22:15:00
5:35 PM,41.0,26.6,57,29.90,10.0,West,8.1,-,N/A,,Mostly Cloudy,270,2013-03-02 22:35:00
5:55 PM,41.0,26.6,57,29.91,10.0,West,11.5,17.3,N/A,,Mostly Cloudy,260,2013-03-02 22:55:00
6:15 PM,39.2,26.6,61,29.91,10.0,West,10.4,-,N/A,,Mostly Cloudy,270,2013-03-02 23:15:00
6:35 PM,37.4,26.6,65,29.92,10.0,West,6.9,-,N/A,,Scattered Clouds,270,2013-03-02 23:35:00
6:55 PM,37.4,26.6,65,29.92,10.0,West,5.8,-,N/A,,Scattered Clouds,270,2013-03-02 23:55:00
7:15 PM,37.4,26.6,65,29.93,10.0,West,5.8,-,N/A,,Scattered Clouds,280,2013-03-03 00:15:00
7:35 PM,37.4,26.6,65,29.93,10.0,West,9.2,-,N/A,,Clear,270,2013-03-03 00:35:00
7:55 PM,37.4,26.6,65,29.93,10.0,West,6.9,-,N/A,,Clear,270,2013-03-03 00:55:00
8:15 PM,35.6,26.6,70,29.94,10.0,West,6.9,-,N/A,,Clear,260,2013-03-03 01:15:00
8:35 PM,35.6,26.6,70,29.94,10.0,West,5.8,-,N/A,,Clear,260,2013-03-03 01:35:00
8:55 PM,35.6,26.6,70,29.94,10.0,West,5.8,-,N/A,,Clear,270,2013-03-03 01:55:00
9:15 PM,35.6,26.6,70,29.95,10.0,West,6.9,-,N/A,,Clear,260,2013-03-03 02:15:00
9:35 PM,35.6,26.6,70,29.95,10.0,West,6.9,-,N/A,,Scattered Clouds,270,2013-03-03 02:35:00
9:55 PM,35.6,28.4,75,29.96,10.0,West,5.8,-,N/A,,Scattered Clouds,260,2013-03-03 02:55:00
10:15 PM,33.8,28.4,81,29.95,10.0,West,5.8,-,N/A,,Mostly Cloudy,260,2013-03-03 03:15:00
10:35 PM,33.8,28.4,81,29.95,10.0,West,6.9,-,N/A,,Overcast,270,2013-03-03 03:35:00
10:55 PM,33.8,28.4,81,29.95,10.0,West,4.6,-,N/A,,Overcast,270,2013-03-03 03:55:00
11:15 PM,33.8,28.4,81,29.95,10.0,West,5.8,-,N/A,,Scattered Clouds,270,2013-03-03 04:15:00
11:35 PM,33.8,28.4,81,29.94,10.0,West,5.8,-,N/A,,Clear,270,2013-03-03 04:35:00
11:55 PM,32.0,28.4,87,29.94,10.0,West,3.5,-,N/A,,Clear,270,2013-03-03 04:55:00